createdAt,value
2022-09-22T00:04:37.195Z,1474
2022-09-22T00:09:55.652Z,1479
2022-09-22T00:15:14.160Z,1481
2022-09-22T00:20:32.620Z,1477
2022-09-22T00:25:51.424Z,1471
2022-09-22T00:31:09.945Z,1459
2022-09-22T00:36:28.310Z,1445
2022-09-22T00:41:46.519Z,1442
2022-09-22T00:47:04.792Z,1430
2022-09-22T00:52:22.858Z,1434
2022-09-22T00:57:41.629Z,1423
2022-09-22T01:03:02.857Z,1426
2022-09-22T01:08:21.306Z,1408
2022-09-22T01:13:40.091Z,1413
2022-09-22T01:18:58.304Z,1177
2022-09-22T01:24:17.035Z,908
2022-09-22T01:29:35.257Z,957
2022-09-22T01:34:53.514Z,1042
2022-09-22T01:40:12.031Z,1073
2022-09-22T01:45:30.898Z,1082
2022-09-22T01:50:48.878Z,1089
2022-09-22T01:56:07.082Z,1094
2022-09-22T02:01:25.927Z,1106
2022-09-22T02:06:44.441Z,1103
2022-09-22T02:12:02.907Z,1100
2022-09-22T02:17:21.660Z,1081
2022-09-22T02:22:40.247Z,1073
2022-09-22T02:27:58.210Z,1055
2022-09-22T02:33:16.159Z,1045
2022-09-22T02:38:34.949Z,1031
2022-09-22T02:43:53.394Z,1026
2022-09-22T02:49:11.890Z,1009
2022-09-22T02:54:30.429Z,1004
2022-09-22T02:59:48.655Z,999
2022-09-22T03:05:07.467Z,982
2022-09-22T03:10:25.869Z,974
2022-09-22T03:15:44.412Z,966
2022-09-22T03:21:02.778Z,957
2022-09-22T03:26:21.319Z,941
2022-09-22T03:31:39.224Z,931
2022-09-22T03:36:57.684Z,933
2022-09-22T03:42:16.192Z,922
2022-09-22T03:47:34.647Z,917
2022-09-22T03:52:53.431Z,907
2022-09-22T03:58:11.636Z,898
2022-09-22T04:03:29.859Z,891
2022-09-22T04:08:48.302Z,884
2022-09-22T04:14:06.531Z,876
2022-09-22T04:19:24.707Z,875
2022-09-22T04:24:42.919Z,862
2022-09-22T04:30:01.726Z,858
2022-09-22T04:35:19.932Z,849
2022-09-22T04:40:38.510Z,844
2022-09-22T04:45:57.515Z,842
2022-09-22T04:51:15.863Z,830
2022-09-22T04:56:34.340Z,823
2022-09-22T05:01:52.855Z,817
2022-09-22T05:07:11.043Z,814
2022-09-22T05:12:29.524Z,807
2022-09-22T05:17:48.037Z,797
2022-09-22T05:23:06.220Z,791
2022-09-22T05:28:24.973Z,783
2022-09-22T05:33:43.209Z,776
2022-09-22T05:39:01.691Z,777
2022-09-22T05:44:20.139Z,771
2022-09-22T05:49:38.652Z,768
2022-09-22T05:54:57.409Z,761
2022-09-22T06:00:16.152Z,753
2022-09-22T06:05:37.372Z,745
2022-09-22T06:10:57.413Z,747
2022-09-22T06:16:16.222Z,742
2022-09-22T06:21:34.193Z,734
2022-09-22T06:26:52.637Z,729
2022-09-22T06:32:10.845Z,734
2022-09-22T06:37:29.356Z,726
2022-09-22T06:42:47.826Z,721
2022-09-22T06:48:09.958Z,716
2022-09-22T06:53:28.711Z,720
2022-09-22T06:59:05.850Z,712
2022-09-22T07:04:28.897Z,703
2022-09-22T07:09:47.687Z,703
2022-09-22T07:15:06.151Z,701
2022-09-22T07:20:24.353Z,699
2022-09-22T07:25:43.141Z,693
2022-09-22T07:31:01.612Z,691
2022-09-22T07:36:20.106Z,687
2022-09-22T07:41:38.926Z,684
2022-09-22T07:46:57.481Z,681
2022-09-22T07:52:16.220Z,686
2022-09-22T07:57:34.998Z,686
2022-09-22T08:02:53.216Z,688
2022-09-22T08:08:11.398Z,688
2022-09-22T08:13:29.620Z,683
2022-09-22T08:18:47.808Z,677
2022-09-22T08:24:06.443Z,669
2022-09-22T08:29:25.147Z,664
2022-09-22T08:34:43.602Z,655
2022-09-22T08:40:01.922Z,656
2022-09-22T08:45:23.522Z,653
2022-09-22T08:50:44.947Z,647
2022-09-22T08:56:03.449Z,641
2022-09-22T09:01:21.958Z,642
2022-09-22T09:06:40.448Z,645
2022-09-22T09:11:59.195Z,642
2022-09-22T09:17:17.412Z,637
2022-09-22T09:22:35.874Z,636
2022-09-22T09:27:54.674Z,633
2022-09-22T09:33:12.991Z,630
2022-09-22T09:38:31.471Z,630
2022-09-22T09:43:53.079Z,627
2022-09-22T09:49:11.686Z,625
2022-09-22T09:54:30.279Z,626
2022-09-22T09:59:48.780Z,619
2022-09-22T10:05:07.004Z,617
2022-09-22T10:10:25.182Z,615
2022-09-22T10:15:43.496Z,611
2022-09-22T10:21:02.056Z,611
2022-09-22T10:26:20.525Z,608
2022-09-22T10:31:39.023Z,609
2022-09-22T10:36:57.830Z,609
2022-09-22T10:42:16.058Z,608
2022-09-22T10:47:33.949Z,604
2022-09-22T10:52:52.218Z,604
2022-09-22T10:58:10.685Z,599
2022-09-22T11:03:29.443Z,599
2022-09-22T11:08:48.003Z,597
2022-09-22T11:14:06.631Z,594
2022-09-22T11:19:25.191Z,592
2022-09-22T11:24:43.396Z,593
2022-09-22T11:30:01.576Z,592
2022-09-22T11:35:28.646Z,597
2022-09-22T11:40:46.924Z,597
2022-09-22T11:46:05.487Z,594
2022-09-22T11:51:23.828Z,592
2022-09-22T11:56:42.594Z,592
2022-09-22T12:02:01.151Z,588
2022-09-22T12:07:19.308Z,587
2022-09-22T12:12:37.812Z,585
2022-09-22T12:17:55.995Z,586
2022-09-22T12:23:14.525Z,580
2022-09-22T12:28:33.294Z,582
2022-09-22T12:33:52.006Z,583
2022-09-22T12:39:10.503Z,579
2022-09-22T12:44:29.020Z,580
2022-09-22T12:49:47.465Z,583
2022-09-22T12:55:06.222Z,579
2022-09-22T13:00:25.086Z,574
2022-09-22T13:05:51.112Z,572
2022-09-22T13:11:09.835Z,568
2022-09-22T13:16:28.418Z,571
2022-09-22T13:21:46.722Z,567
2022-09-22T13:27:05.202Z,561
2022-09-22T13:32:23.428Z,556
2022-09-22T13:37:41.373Z,562
2022-09-22T13:42:59.542Z,563
2022-09-22T13:48:18.045Z,568
2022-09-22T13:53:36.785Z,566
2022-09-22T13:58:55.272Z,567
2022-09-22T14:04:13.811Z,557
2022-09-22T14:09:31.979Z,561
2022-09-22T14:14:50.486Z,562
2022-09-22T14:20:08.714Z,561
2022-09-22T14:25:26.883Z,559
2022-09-22T14:30:45.649Z,562
2022-09-22T14:36:04.585Z,558
2022-09-22T14:41:22.983Z,560
2022-09-22T14:46:41.435Z,560
2022-09-22T14:51:59.729Z,560
2022-09-22T14:57:17.905Z,553
2022-09-22T15:02:36.266Z,555
2022-09-22T15:07:54.257Z,555
2022-09-22T15:13:12.441Z,555
2022-09-22T15:18:31.295Z,557
2022-09-22T15:23:49.864Z,556
2022-09-22T15:29:08.107Z,555
2022-09-22T15:34:26.177Z,559
2022-09-22T15:39:44.669Z,559
2022-09-22T15:45:03.237Z,560
2022-09-22T15:50:21.998Z,564
2022-09-22T15:55:24.333Z,561
2022-09-22T16:00:42.601Z,563
2022-09-22T16:06:00.988Z,560
2022-09-22T16:11:19.771Z,559
2022-09-22T16:16:38.015Z,558
2022-09-22T16:21:56.169Z,556
2022-09-22T16:27:14.172Z,553
2022-09-22T16:32:32.807Z,554
2022-09-22T16:37:51.570Z,553
2022-09-22T16:43:10.076Z,553
2022-09-22T16:48:28.254Z,550
2022-09-22T16:53:47.011Z,551
2022-09-22T16:58:50.185Z,552
2022-09-22T17:04:08.670Z,550
2022-09-22T17:09:27.414Z,555
2022-09-22T17:14:45.954Z,552
2022-09-22T17:20:04.179Z,552
2022-09-22T17:25:22.692Z,554
2022-09-22T17:30:40.960Z,555
2022-09-22T17:35:59.686Z,555
2022-09-22T17:41:18.162Z,551
2022-09-22T17:46:36.705Z,554
2022-09-22T17:51:55.107Z,557
2022-09-22T17:57:13.606Z,558
2022-09-22T18:02:32.138Z,559
2022-09-22T18:07:53.600Z,561
2022-09-22T18:13:12.031Z,564
2022-09-22T18:18:30.539Z,566
2022-09-22T18:23:49.011Z,565
2022-09-22T18:29:07.471Z,562
2022-09-22T18:34:26.337Z,567
2022-09-22T18:39:45.112Z,567
2022-09-22T18:45:03.700Z,571
2022-09-22T18:50:22.214Z,573
2022-09-22T18:55:40.408Z,575
2022-09-22T19:00:58.363Z,575
2022-09-22T19:06:16.569Z,578
2022-09-22T19:11:34.762Z,577
2022-09-22T19:16:52.964Z,578
2022-09-22T19:22:11.462Z,581
2022-09-22T19:27:29.670Z,578
2022-09-22T19:32:47.861Z,581
2022-09-22T19:38:06.908Z,581
2022-09-22T19:43:25.641Z,583
2022-09-22T19:48:44.140Z,582
2022-09-22T19:54:02.343Z,586
2022-09-22T19:59:20.557Z,588
2022-09-22T20:04:38.736Z,589
2022-09-22T20:09:57.692Z,593
2022-09-22T20:15:16.176Z,589
2022-09-22T20:20:34.644Z,592
2022-09-22T20:25:53.133Z,593
2022-09-22T20:31:11.104Z,599
2022-09-22T20:36:30.968Z,602
2022-09-22T20:41:55.365Z,603
2022-09-22T20:47:14.111Z,605
2022-09-22T20:52:32.610Z,608
2022-09-22T20:57:51.379Z,610
2022-09-22T21:03:10.126Z,609
2022-09-22T21:08:28.646Z,606
2022-09-22T21:13:46.873Z,618
2022-09-22T21:19:05.194Z,622
2022-09-22T21:24:23.753Z,632
2022-09-22T21:29:42.259Z,629
2022-09-22T21:35:00.188Z,627
2022-09-22T21:40:18.704Z,628
2022-09-22T21:45:36.903Z,633
2022-09-22T21:50:55.094Z,634
2022-09-22T21:56:13.604Z,637
2022-09-22T22:01:32.097Z,638
2022-09-22T22:06:50.357Z,637
2022-09-22T22:12:08.526Z,638
2022-09-22T22:17:26.776Z,634
2022-09-22T22:22:45.227Z,639
2022-09-22T22:28:03.991Z,638
2022-09-22T22:33:22.510Z,639
2022-09-22T22:38:40.483Z,638
2022-09-22T22:43:59.054Z,638
2022-09-22T22:49:17.877Z,632
2022-09-22T22:54:36.320Z,630
2022-09-22T22:59:55.110Z,631
2022-09-22T23:05:13.395Z,627
2022-09-22T23:10:32.205Z,631
2022-09-22T23:15:50.959Z,631
2022-09-22T23:21:09.394Z,627
2022-09-22T23:26:27.616Z,625
2022-09-22T23:31:46.392Z,629
2022-09-22T23:37:04.902Z,631
2022-09-22T23:42:23.348Z,632
2022-09-22T23:47:41.945Z,634
2022-09-22T23:53:00.134Z,631
2022-09-22T23:58:18.608Z,631
